sensor_id;sensor_type;location;lat;lon;timestamp;temperature;humidity
71942;DHT22;59997;53.300;-6.260;2024-02-21T00:00:16;8.48;85.45
71942;DHT22;59997;53.300;-6.260;2024-02-21T00:02:42;8.52;85.50
71942;DHT22;59997;53.300;-6.260;2024-02-21T00:05:08;8.55;84.73
71942;DHT22;59997;53.300;-6.260;2024-02-21T00:07:33;8.61;84.58
71942;DHT22;59997;53.300;-6.260;2024-02-21T00:09:58;8.69;83.82
71942;DHT22;59997;53.300;-6.260;2024-02-21T00:12:24;8.72;83.81
71942;DHT22;59997;53.300;-6.260;2024-02-21T00:14:50;8.77;83.70
71942;DHT22;59997;53.300;-6.260;2024-02-21T00:17:15;8.68;84.14
71942;DHT22;59997;53.300;-6.260;2024-02-21T00:19:41;8.70;83.75
71942;DHT22;59997;53.300;-6.260;2024-02-21T00:22:06;8.72;83.83
71942;DHT22;59997;53.300;-6.260;2024-02-21T00:24:32;8.63;84.37
71942;DHT22;59997;53.300;-6.260;2024-02-21T00:26:57;8.65;84.44
71942;DHT22;59997;53.300;-6.260;2024-02-21T00:29:23;8.72;84.19
71942;DHT22;59997;53.300;-6.260;2024-02-21T00:31:49;8.65;84.48
71942;DHT22;59997;53.300;-6.260;2024-02-21T00:34:15;8.65;84.83
71942;DHT22;59997;53.300;-6.260;2024-02-21T00:36:41;8.61;84.94
71942;DHT22;59997;53.300;-6.260;2024-02-21T00:39:06;8.59;85.22
71942;DHT22;59997;53.300;-6.260;2024-02-21T00:41:32;8.63;85.34
71942;DHT22;59997;53.300;-6.260;2024-02-21T00:43:58;8.68;85.45
71942;DHT22;59997;53.300;-6.260;2024-02-21T00:46:23;8.73;85.32
71942;DHT22;59997;53.300;-6.260;2024-02-21T00:48:49;8.79;85.41
71942;DHT22;59997;53.300;-6.260;2024-02-21T00:51:16;8.87;85.36
71942;DHT22;59997;53.300;-6.260;2024-02-21T00:53:42;8.84;85.78
71942;DHT22;59997;53.300;-6.260;2024-02-21T00:56:08;8.80;86.25
71942;DHT22;59997;53.300;-6.260;2024-02-21T00:58:33;8.76;86.32
71942;DHT22;59997;53.300;-6.260;2024-02-21T01:01:00;8.72;86.57
71942;DHT22;59997;53.300;-6.260;2024-02-21T01:03:26;8.70;86.65
71942;DHT22;59997;53.300;-6.260;2024-02-21T01:05:52;8.72;86.77
71942;DHT22;59997;53.300;-6.260;2024-02-21T01:08:18;8.79;86.66
71942;DHT22;59997;53.300;-6.260;2024-02-21T01:10:43;8.80;86.42
71942;DHT22;59997;53.300;-6.260;2024-02-21T01:13:09;8.83;86.59
71942;DHT22;59997;53.300;-6.260;2024-02-21T01:15:34;8.77;86.88
71942;DHT22;59997;53.300;-6.260;2024-02-21T01:18:01;8.77;87.06
71942;DHT22;59997;53.300;-6.260;2024-02-21T01:20:26;8.73;86.81
71942;DHT22;59997;53.300;-6.260;2024-02-21T01:22:52;8.68;86.82
71942;DHT22;59997;53.300;-6.260;2024-02-21T01:25:17;8.63;86.84
71942;DHT22;59997;53.300;-6.260;2024-02-21T01:27:43;8.54;87.21
71942;DHT22;59997;53.300;-6.260;2024-02-21T01:30:09;8.55;87.18
71942;DHT22;59997;53.300;-6.260;2024-02-21T01:32:36;8.48;87.32
71942;DHT22;59997;53.300;-6.260;2024-02-21T01:35:01;8.51;87.36
71942;DHT22;59997;53.300;-6.260;2024-02-21T01:37:27;8.51;87.34
71942;DHT22;59997;53.300;-6.260;2024-02-21T01:39:53;8.54;87.49
71942;DHT22;59997;53.300;-6.260;2024-02-21T01:42:18;8.58;87.47
71942;DHT22;59997;53.300;-6.260;2024-02-21T01:44:44;8.54;87.66
71942;DHT22;59997;53.300;-6.260;2024-02-21T01:47:10;8.51;87.88
71942;DHT22;59997;53.300;-6.260;2024-02-21T01:49:40;8.48;88.01
71942;DHT22;59997;53.300;-6.260;2024-02-21T01:52:06;8.45;88.11
71942;DHT22;59997;53.300;-6.260;2024-02-21T01:54:31;8.44;88.18
71942;DHT22;59997;53.300;-6.260;2024-02-21T01:56:58;8.42;88.23
71942;DHT22;59997;53.300;-6.260;2024-02-21T01:59:23;8.40;88.16
71942;DHT22;59997;53.300;-6.260;2024-02-21T02:01:51;8.42;88.22
71942;DHT22;59997;53.300;-6.260;2024-02-21T02:04:19;8.33;88.34
71942;DHT22;59997;53.300;-6.260;2024-02-21T02:06:45;8.24;88.38
71942;DHT22;59997;53.300;-6.260;2024-02-21T02:09:11;8.21;88.49
71942;DHT22;59997;53.300;-6.260;2024-02-21T02:11:37;8.24;88.46
71942;DHT22;59997;53.300;-6.260;2024-02-21T02:14:02;8.24;88.60
71942;DHT22;59997;53.300;-6.260;2024-02-21T02:16:28;8.30;88.65
71942;DHT22;59997;53.300;-6.260;2024-02-21T02:18:53;8.21;88.75
71942;DHT22;59997;53.300;-6.260;2024-02-21T02:21:56;8.21;88.92
71942;DHT22;59997;53.300;-6.260;2024-02-21T02:24:24;8.16;88.92
71942;DHT22;59997;53.300;-6.260;2024-02-21T02:26:53;8.30;89.22
71942;DHT22;59997;53.300;-6.260;2024-02-21T02:29:19;8.73;88.80
71942;DHT22;59997;53.300;-6.260;2024-02-21T02:31:44;9.36;87.55
71942;DHT22;59997;53.300;-6.260;2024-02-21T02:34:10;9.67;87.20
71942;DHT22;59997;53.300;-6.260;2024-02-21T02:36:35;9.91;86.51
71942;DHT22;59997;53.300;-6.260;2024-02-21T02:39:01;9.98;86.48
71942;DHT22;59997;53.300;-6.260;2024-02-21T02:41:26;10.09;86.11
71942;DHT22;59997;53.300;-6.260;2024-02-21T02:43:52;10.12;86.27
71942;DHT22;59997;53.300;-6.260;2024-02-21T02:46:18;10.11;86.38
71942;DHT22;59997;53.300;-6.260;2024-02-21T02:48:43;10.07;86.53
71942;DHT22;59997;53.300;-6.260;2024-02-21T02:51:10;10.04;86.85
71942;DHT22;59997;53.300;-6.260;2024-02-21T02:53:35;9.97;86.94
71942;DHT22;59997;53.300;-6.260;2024-02-21T02:56:01;9.95;87.35
71942;DHT22;59997;53.300;-6.260;2024-02-21T02:58:26;9.83;87.56
71942;DHT22;59997;53.300;-6.260;2024-02-21T03:00:52;9.80;87.85
71942;DHT22;59997;53.300;-6.260;2024-02-21T03:03:17;9.74;88.05
71942;DHT22;59997;53.300;-6.260;2024-02-21T03:05:43;9.72;88.28
71942;DHT22;59997;53.300;-6.260;2024-02-21T03:08:09;9.72;88.33
71942;DHT22;59997;53.300;-6.260;2024-02-21T03:10:35;9.56;88.52
71942;DHT22;59997;53.300;-6.260;2024-02-21T03:13:00;9.63;88.64
71942;DHT22;59997;53.300;-6.260;2024-02-21T03:15:26;9.62;88.47
71942;DHT22;59997;53.300;-6.260;2024-02-21T03:17:52;9.53;88.90
71942;DHT22;59997;53.300;-6.260;2024-02-21T03:20:17;9.43;89.03
71942;DHT22;59997;53.300;-6.260;2024-02-21T03:22:45;9.34;89.05
71942;DHT22;59997;53.300;-6.260;2024-02-21T03:25:10;9.21;89.29
71942;DHT22;59997;53.300;-6.260;2024-02-21T03:27:36;9.15;89.52
71942;DHT22;59997;53.300;-6.260;2024-02-21T03:30:02;9.10;89.69
71942;DHT22;59997;53.300;-6.260;2024-02-21T03:32:28;9.20;89.73
71942;DHT22;59997;53.300;-6.260;2024-02-21T03:34:54;9.15;89.68
71942;DHT22;59997;53.300;-6.260;2024-02-21T03:37:20;9.21;89.78
71942;DHT22;59997;53.300;-6.260;2024-02-21T03:39:45;9.11;89.80
71942;DHT22;59997;53.300;-6.260;2024-02-21T03:42:11;9.06;90.07
71942;DHT22;59997;53.300;-6.260;2024-02-21T03:44:37;9.03;90.08
71942;DHT22;59997;53.300;-6.260;2024-02-21T03:47:02;9.08;90.27
71942;DHT22;59997;53.300;-6.260;2024-02-21T03:49:28;9.06;90.36
71942;DHT22;59997;53.300;-6.260;2024-02-21T03:51:54;8.99;90.42
71942;DHT22;59997;53.300;-6.260;2024-02-21T03:54:20;8.96;90.51
71942;DHT22;59997;53.300;-6.260;2024-02-21T03:56:45;8.99;90.58
71942;DHT22;59997;53.300;-6.260;2024-02-21T03:59:13;8.96;90.81
71942;DHT22;59997;53.300;-6.260;2024-02-21T04:01:38;8.97;90.90
71942;DHT22;59997;53.300;-6.260;2024-02-21T04:04:04;9.07;90.93
71942;DHT22;59997;53.300;-6.260;2024-02-21T04:06:29;9.04;90.94
71942;DHT22;59997;53.300;-6.260;2024-02-21T04:08:55;9.17;90.93
71942;DHT22;59997;53.300;-6.260;2024-02-21T04:11:21;9.21;90.96
71942;DHT22;59997;53.300;-6.260;2024-02-21T04:13:46;9.20;91.01
71942;DHT22;59997;53.300;-6.260;2024-02-21T04:16:14;9.24;91.00
71942;DHT22;59997;53.300;-6.260;2024-02-21T04:18:41;9.28;91.08
71942;DHT22;59997;53.300;-6.260;2024-02-21T04:21:06;9.27;91.18
71942;DHT22;59997;53.300;-6.260;2024-02-21T04:23:32;9.30;91.23
71942;DHT22;59997;53.300;-6.260;2024-02-21T04:25:57;9.41;91.26
71942;DHT22;59997;53.300;-6.260;2024-02-21T04:28:23;9.43;91.33
71942;DHT22;59997;53.300;-6.260;2024-02-21T04:30:48;9.42;91.38
71942;DHT22;59997;53.300;-6.260;2024-02-21T04:33:14;9.46;91.36
71942;DHT22;59997;53.300;-6.260;2024-02-21T04:35:39;9.52;91.39
71942;DHT22;59997;53.300;-6.260;2024-02-21T04:38:05;9.60;91.31
71942;DHT22;59997;53.300;-6.260;2024-02-21T04:40:30;9.56;91.30
71942;DHT22;59997;53.300;-6.260;2024-02-21T04:42:57;9.60;91.40
71942;DHT22;59997;53.300;-6.260;2024-02-21T04:45:22;9.59;91.40
71942;DHT22;59997;53.300;-6.260;2024-02-21T04:47:48;9.67;91.40
71942;DHT22;59997;53.300;-6.260;2024-02-21T04:50:13;9.77;91.37
71942;DHT22;59997;53.300;-6.260;2024-02-21T04:52:39;9.79;91.29
71942;DHT22;59997;53.300;-6.260;2024-02-21T04:55:05;9.89;91.28
71942;DHT22;59997;53.300;-6.260;2024-02-21T04:57:31;10.00;91.06
71942;DHT22;59997;53.300;-6.260;2024-02-21T04:59:56;9.98;90.91
71942;DHT22;59997;53.300;-6.260;2024-02-21T05:02:22;9.98;91.01
71942;DHT22;59997;53.300;-6.260;2024-02-21T05:04:50;10.01;90.93
71942;DHT22;59997;53.300;-6.260;2024-02-21T05:07:15;10.00;90.96
71942;DHT22;59997;53.300;-6.260;2024-02-21T05:09:42;9.98;91.05
71942;DHT22;59997;53.300;-6.260;2024-02-21T05:12:08;9.94;91.16
71942;DHT22;59997;53.300;-6.260;2024-02-21T05:14:34;10.01;91.18
71942;DHT22;59997;53.300;-6.260;2024-02-21T05:16:59;9.98;91.11
71942;DHT22;59997;53.300;-6.260;2024-02-21T05:19:25;9.94;91.27
71942;DHT22;59997;53.300;-6.260;2024-02-21T05:21:50;9.95;91.37
71942;DHT22;59997;53.300;-6.260;2024-02-21T05:24:16;10.00;91.42
71942;DHT22;59997;53.300;-6.260;2024-02-21T05:26:41;9.97;91.40
71942;DHT22;59997;53.300;-6.260;2024-02-21T05:29:07;10.01;91.49
71942;DHT22;59997;53.300;-6.260;2024-02-21T05:34:17;10.00;91.54
71942;DHT22;59997;53.300;-6.260;2024-02-21T05:36:42;9.94;91.61
71942;DHT22;59997;53.300;-6.260;2024-02-21T05:39:08;10.00;91.70
71942;DHT22;59997;53.300;-6.260;2024-02-21T05:41:33;10.04;91.68
71942;DHT22;59997;53.300;-6.260;2024-02-21T05:43:58;10.00;91.60
71942;DHT22;59997;53.300;-6.260;2024-02-21T05:46:24;10.01;91.63
71942;DHT22;59997;53.300;-6.260;2024-02-21T05:48:49;10.02;91.66
71942;DHT22;59997;53.300;-6.260;2024-02-21T05:51:15;9.94;91.78
71942;DHT22;59997;53.300;-6.260;2024-02-21T05:53:41;9.91;91.95
71942;DHT22;59997;53.300;-6.260;2024-02-21T05:56:15;9.90;92.11
71942;DHT22;59997;53.300;-6.260;2024-02-21T05:58:42;9.87;92.19
71942;DHT22;59997;53.300;-6.260;2024-02-21T06:01:07;10.04;92.17
71942;DHT22;59997;53.300;-6.260;2024-02-21T06:03:33;10.07;92.13
71942;DHT22;59997;53.300;-6.260;2024-02-21T06:05:59;10.02;92.18
71942;DHT22;59997;53.300;-6.260;2024-02-21T06:08:25;9.98;92.30
71942;DHT22;59997;53.300;-6.260;2024-02-21T06:10:51;10.00;92.34
71942;DHT22;59997;53.300;-6.260;2024-02-21T06:13:26;9.94;92.43
71942;DHT22;59997;53.300;-6.260;2024-02-21T06:15:52;10.11;92.46
71942;DHT22;59997;53.300;-6.260;2024-02-21T06:18:18;10.12;92.41
71942;DHT22;59997;53.300;-6.260;2024-02-21T06:20:44;10.31;92.40
71942;DHT22;59997;53.300;-6.260;2024-02-21T06:23:11;10.52;92.21
71942;DHT22;59997;53.300;-6.260;2024-02-21T06:25:37;10.69;91.88
71942;DHT22;59997;53.300;-6.260;2024-02-21T06:28:04;10.85;91.40
71942;DHT22;59997;53.300;-6.260;2024-02-21T06:30:29;10.98;90.89
71942;DHT22;59997;53.300;-6.260;2024-02-21T06:32:55;11.04;90.89
71942;DHT22;59997;53.300;-6.260;2024-02-21T06:35:21;11.07;90.63
71942;DHT22;59997;53.300;-6.260;2024-02-21T06:37:46;11.07;90.41
71942;DHT22;59997;53.300;-6.260;2024-02-21T06:40:19;11.11;90.25
71942;DHT22;59997;53.300;-6.260;2024-02-21T06:42:45;11.14;90.05
71942;DHT22;59997;53.300;-6.260;2024-02-21T06:45:10;11.16;89.94
71942;DHT22;59997;53.300;-6.260;2024-02-21T06:47:36;11.15;90.07
71942;DHT22;59997;53.300;-6.260;2024-02-21T06:50:02;11.16;90.09
71942;DHT22;59997;53.300;-6.260;2024-02-21T06:52:28;11.07;90.13
71942;DHT22;59997;53.300;-6.260;2024-02-21T06:54:53;11.16;89.76
71942;DHT22;59997;53.300;-6.260;2024-02-21T06:57:19;11.18;89.79
71942;DHT22;59997;53.300;-6.260;2024-02-21T06:59:44;11.19;89.62
71942;DHT22;59997;53.300;-6.260;2024-02-21T07:02:10;11.42;89.22
71942;DHT22;59997;53.300;-6.260;2024-02-21T07:04:35;11.71;88.18
71942;DHT22;59997;53.300;-6.260;2024-02-21T07:07:01;11.89;87.89
71942;DHT22;59997;53.300;-6.260;2024-02-21T07:09:27;11.92;87.81
71942;DHT22;59997;53.300;-6.260;2024-02-21T07:11:54;11.92;87.96
71942;DHT22;59997;53.300;-6.260;2024-02-21T07:14:19;11.97;87.86
71942;DHT22;59997;53.300;-6.260;2024-02-21T07:16:45;11.97;87.95
71942;DHT22;59997;53.300;-6.260;2024-02-21T07:19:10;11.94;87.98
71942;DHT22;59997;53.300;-6.260;2024-02-21T07:21:36;11.99;87.95
71942;DHT22;59997;53.300;-6.260;2024-02-21T07:24:04;12.01;87.86
71942;DHT22;59997;53.300;-6.260;2024-02-21T07:26:31;11.98;88.11
71942;DHT22;59997;53.300;-6.260;2024-02-21T07:28:56;11.99;88.09
71942;DHT22;59997;53.300;-6.260;2024-02-21T07:31:21;11.88;88.30
71942;DHT22;59997;53.300;-6.260;2024-02-21T07:33:47;11.87;88.28
71942;DHT22;59997;53.300;-6.260;2024-02-21T07:36:15;11.92;88.09
71942;DHT22;59997;53.300;-6.260;2024-02-21T07:38:40;11.92;88.13
71942;DHT22;59997;53.300;-6.260;2024-02-21T07:41:07;11.95;88.19
71942;DHT22;59997;53.300;-6.260;2024-02-21T07:43:32;11.97;88.11
71942;DHT22;59997;53.300;-6.260;2024-02-21T07:45:58;11.95;88.25
71942;DHT22;59997;53.300;-6.260;2024-02-21T07:48:23;11.95;88.23
71942;DHT22;59997;53.300;-6.260;2024-02-21T07:50:52;11.94;88.30
71942;DHT22;59997;53.300;-6.260;2024-02-21T07:53:19;11.87;88.54
71942;DHT22;59997;53.300;-6.260;2024-02-21T07:55:45;11.84;88.48
71942;DHT22;59997;53.300;-6.260;2024-02-21T07:58:10;11.81;88.63
71942;DHT22;59997;53.300;-6.260;2024-02-21T08:00:36;11.80;88.63
71942;DHT22;59997;53.300;-6.260;2024-02-21T08:03:02;11.85;88.54
71942;DHT22;59997;53.300;-6.260;2024-02-21T08:05:27;11.82;88.56
71942;DHT22;59997;53.300;-6.260;2024-02-21T08:07:55;11.85;88.56
71942;DHT22;59997;53.300;-6.260;2024-02-21T08:10:20;11.99;88.04
71942;DHT22;59997;53.300;-6.260;2024-02-21T08:12:46;12.08;87.96
71942;DHT22;59997;53.300;-6.260;2024-02-21T08:15:11;12.09;88.02
71942;DHT22;59997;53.300;-6.260;2024-02-21T08:17:37;12.23;87.86
71942;DHT22;59997;53.300;-6.260;2024-02-21T08:20:04;12.32;87.75
71942;DHT22;59997;53.300;-6.260;2024-02-21T08:22:30;12.33;87.86
71942;DHT22;59997;53.300;-6.260;2024-02-21T08:24:55;12.44;87.73
71942;DHT22;59997;53.300;-6.260;2024-02-21T08:27:21;12.40;88.08
71942;DHT22;59997;53.300;-6.260;2024-02-21T08:29:47;12.37;88.10
71942;DHT22;59997;53.300;-6.260;2024-02-21T08:32:12;12.36;88.29
71942;DHT22;59997;53.300;-6.260;2024-02-21T08:34:38;12.36;88.18
71942;DHT22;59997;53.300;-6.260;2024-02-21T08:37:03;12.43;87.90
71942;DHT22;59997;53.300;-6.260;2024-02-21T08:39:29;12.47;87.95
71942;DHT22;59997;53.300;-6.260;2024-02-21T08:41:56;12.54;87.95
71942;DHT22;59997;53.300;-6.260;2024-02-21T08:44:27;12.65;87.81
71942;DHT22;59997;53.300;-6.260;2024-02-21T08:46:52;12.77;87.66
71942;DHT22;59997;53.300;-6.260;2024-02-21T08:49:18;12.82;87.56
71942;DHT22;59997;53.300;-6.260;2024-02-21T08:51:43;12.89;87.55
71942;DHT22;59997;53.300;-6.260;2024-02-21T08:54:09;12.99;87.37
71942;DHT22;59997;53.300;-6.260;2024-02-21T08:56:34;13.08;87.30
71942;DHT22;59997;53.300;-6.260;2024-02-21T08:59:01;13.13;87.33
71942;DHT22;59997;53.300;-6.260;2024-02-21T09:01:27;13.20;87.29
71942;DHT22;59997;53.300;-6.260;2024-02-21T09:03:55;13.20;87.19
71942;DHT22;59997;53.300;-6.260;2024-02-21T09:06:24;13.26;87.28
71942;DHT22;59997;53.300;-6.260;2024-02-21T09:08:56;13.30;87.25
71942;DHT22;59997;53.300;-6.260;2024-02-21T09:11:21;13.40;87.01
71942;DHT22;59997;53.300;-6.260;2024-02-21T09:13:47;13.33;87.29
71942;DHT22;59997;53.300;-6.260;2024-02-21T09:16:12;13.32;87.31
71942;DHT22;59997;53.300;-6.260;2024-02-21T09:18:38;13.34;87.30
71942;DHT22;59997;53.300;-6.260;2024-02-21T09:21:03;13.36;87.31
71942;DHT22;59997;53.300;-6.260;2024-02-21T09:23:29;13.36;87.40
71942;DHT22;59997;53.300;-6.260;2024-02-21T09:25:56;13.39;87.45
71942;DHT22;59997;53.300;-6.260;2024-02-21T09:28:22;13.34;87.63
71942;DHT22;59997;53.300;-6.260;2024-02-21T09:30:47;13.47;87.49
71942;DHT22;59997;53.300;-6.260;2024-02-21T09:33:13;13.58;87.38
71942;DHT22;59997;53.300;-6.260;2024-02-21T09:35:39;13.75;87.07
71942;DHT22;59997;53.300;-6.260;2024-02-21T09:38:04;13.90;86.91
71942;DHT22;59997;53.300;-6.260;2024-02-21T09:40:30;14.05;86.61
71942;DHT22;59997;53.300;-6.260;2024-02-21T09:43:03;14.10;86.61
71942;DHT22;59997;53.300;-6.260;2024-02-21T09:45:33;14.05;86.57
71942;DHT22;59997;53.300;-6.260;2024-02-21T09:50:43;14.14;86.53
71942;DHT22;59997;53.300;-6.260;2024-02-21T09:53:12;14.01;86.74
71942;DHT22;59997;53.300;-6.260;2024-02-21T09:55:37;14.20;86.76
71942;DHT22;59997;53.300;-6.260;2024-02-21T09:58:05;14.23;86.66
71942;DHT22;59997;53.300;-6.260;2024-02-21T10:00:31;14.23;86.78
71942;DHT22;59997;53.300;-6.260;2024-02-21T10:02:58;14.05;86.97
71942;DHT22;59997;53.300;-6.260;2024-02-21T10:05:23;14.12;87.11
71942;DHT22;59997;53.300;-6.260;2024-02-21T10:07:51;14.02;87.41
71942;DHT22;59997;53.300;-6.260;2024-02-21T10:10:17;13.96;87.62
71942;DHT22;59997;53.300;-6.260;2024-02-21T10:12:53;13.78;87.71
71942;DHT22;59997;53.300;-6.260;2024-02-21T10:15:22;13.60;88.15
71942;DHT22;59997;53.300;-6.260;2024-02-21T10:17:48;13.50;88.37
71942;DHT22;59997;53.300;-6.260;2024-02-21T10:20:13;13.44;88.52
71942;DHT22;59997;53.300;-6.260;2024-02-21T10:22:40;13.39;88.40
71942;DHT22;59997;53.300;-6.260;2024-02-21T10:25:09;13.40;88.24
71942;DHT22;59997;53.300;-6.260;2024-02-21T10:27:36;13.51;87.98
71942;DHT22;59997;53.300;-6.260;2024-02-21T10:30:03;13.72;87.74
71942;DHT22;59997;53.300;-6.260;2024-02-21T10:32:29;14.24;86.94
71942;DHT22;59997;53.300;-6.260;2024-02-21T10:35:05;14.64;86.00
71942;DHT22;59997;53.300;-6.260;2024-02-21T10:37:30;14.93;85.62
71942;DHT22;59997;53.300;-6.260;2024-02-21T10:39:57;14.85;85.27
71942;DHT22;59997;53.300;-6.260;2024-02-21T10:42:22;14.89;85.42
71942;DHT22;59997;53.300;-6.260;2024-02-21T10:44:51;14.45;85.92
71942;DHT22;59997;53.300;-6.260;2024-02-21T10:47:21;14.28;86.29
71942;DHT22;59997;53.300;-6.260;2024-02-21T10:49:58;14.21;86.53
71942;DHT22;59997;53.300;-6.260;2024-02-21T10:52:51;14.20;86.47
71942;DHT22;59997;53.300;-6.260;2024-02-21T10:55:20;14.33;86.39
71942;DHT22;59997;53.300;-6.260;2024-02-21T10:57:51;14.40;86.43
71942;DHT22;59997;53.300;-6.260;2024-02-21T11:00:17;14.37;86.42
71942;DHT22;59997;53.300;-6.260;2024-02-21T11:02:45;14.20;86.29
71942;DHT22;59997;53.300;-6.260;2024-02-21T11:05:12;14.12;86.20
71942;DHT22;59997;53.300;-6.260;2024-02-21T11:07:38;14.06;86.40
71942;DHT22;59997;53.300;-6.260;2024-02-21T11:10:05;13.96;86.41
71942;DHT22;59997;53.300;-6.260;2024-02-21T11:12:33;13.85;86.46
71942;DHT22;59997;53.300;-6.260;2024-02-21T11:15:07;14.12;85.73
71942;DHT22;59997;53.300;-6.260;2024-02-21T11:17:33;14.08;85.28
71942;DHT22;59997;53.300;-6.260;2024-02-21T11:20:10;14.05;85.54
71942;DHT22;59997;53.300;-6.260;2024-02-21T11:22:41;14.02;85.67
71942;DHT22;59997;53.300;-6.260;2024-02-21T11:25:07;13.92;85.76
71942;DHT22;59997;53.300;-6.260;2024-02-21T11:27:38;13.93;86.11
71942;DHT22;59997;53.300;-6.260;2024-02-21T11:30:12;13.74;86.56
71942;DHT22;59997;53.300;-6.260;2024-02-21T11:32:37;13.54;86.71
71942;DHT22;59997;53.300;-6.260;2024-02-21T11:35:03;13.57;87.13
71942;DHT22;59997;53.300;-6.260;2024-02-21T11:37:34;13.47;87.10
71942;DHT22;59997;53.300;-6.260;2024-02-21T11:40:02;13.44;86.77
71942;DHT22;59997;53.300;-6.260;2024-02-21T11:42:29;13.20;87.08
71942;DHT22;59997;53.300;-6.260;2024-02-21T11:44:56;13.40;87.08
71942;DHT22;59997;53.300;-6.260;2024-02-21T11:47:24;13.55;86.68
71942;DHT22;59997;53.300;-6.260;2024-02-21T11:49:50;13.65;85.64
71942;DHT22;59997;53.300;-6.260;2024-02-21T11:52:22;13.50;86.12
71942;DHT22;59997;53.300;-6.260;2024-02-21T11:54:50;13.39;86.40
71942;DHT22;59997;53.300;-6.260;2024-02-21T11:57:17;13.33;86.71
71942;DHT22;59997;53.300;-6.260;2024-02-21T11:59:44;13.02;87.46
71942;DHT22;59997;53.300;-6.260;2024-02-21T12:02:11;12.80;87.30
71942;DHT22;59997;53.300;-6.260;2024-02-21T12:04:37;12.67;86.95
71942;DHT22;59997;53.300;-6.260;2024-02-21T12:07:03;12.77;87.13
71942;DHT22;59997;53.300;-6.260;2024-02-21T12:09:30;12.98;86.69
71942;DHT22;59997;53.300;-6.260;2024-02-21T12:12:03;12.88;86.48
71942;DHT22;59997;53.300;-6.260;2024-02-21T12:14:31;12.78;86.14
71942;DHT22;59997;53.300;-6.260;2024-02-21T12:16:57;12.85;85.82
71942;DHT22;59997;53.300;-6.260;2024-02-21T12:19:23;12.80;84.87
71942;DHT22;59997;53.300;-6.260;2024-02-21T12:21:49;12.91;83.10
71942;DHT22;59997;53.300;-6.260;2024-02-21T12:24:24;13.15;82.14
71942;DHT22;59997;53.300;-6.260;2024-02-21T12:26:50;13.65;81.53
71942;DHT22;59997;53.300;-6.260;2024-02-21T12:29:18;14.49;79.39
71942;DHT22;59997;53.300;-6.260;2024-02-21T12:31:44;15.03;77.98
71942;DHT22;59997;53.300;-6.260;2024-02-21T12:34:10;15.57;76.39
71942;DHT22;59997;53.300;-6.260;2024-02-21T12:36:40;15.67;76.17
71942;DHT22;59997;53.300;-6.260;2024-02-21T12:39:06;15.93;75.27
71942;DHT22;59997;53.300;-6.260;2024-02-21T12:41:32;15.42;75.54
71942;DHT22;59997;53.300;-6.260;2024-02-21T12:43:58;15.13;76.66
71942;DHT22;59997;53.300;-6.260;2024-02-21T12:46:24;14.48;76.63
71942;DHT22;59997;53.300;-6.260;2024-02-21T12:48:50;14.52;76.81
71942;DHT22;59997;53.300;-6.260;2024-02-21T12:51:16;14.27;77.82
71942;DHT22;59997;53.300;-6.260;2024-02-21T12:53:47;14.26;77.86
71942;DHT22;59997;53.300;-6.260;2024-02-21T12:56:12;14.30;77.01
71942;DHT22;59997;53.300;-6.260;2024-02-21T12:58:38;14.37;76.53
71942;DHT22;59997;53.300;-6.260;2024-02-21T13:01:03;14.38;77.08
71942;DHT22;59997;53.300;-6.260;2024-02-21T13:03:29;14.67;77.72
71942;DHT22;59997;53.300;-6.260;2024-02-21T13:05:55;14.57;75.57
71942;DHT22;59997;53.300;-6.260;2024-02-21T13:08:21;14.60;75.65
71942;DHT22;59997;53.300;-6.260;2024-02-21T13:10:48;14.68;75.24
71942;DHT22;59997;53.300;-6.260;2024-02-21T13:13:14;14.65;75.50
71942;DHT22;59997;53.300;-6.260;2024-02-21T13:15:40;14.73;74.98
71942;DHT22;59997;53.300;-6.260;2024-02-21T13:18:08;14.75;74.99
71942;DHT22;59997;53.300;-6.260;2024-02-21T13:20:33;14.73;75.57
71942;DHT22;59997;53.300;-6.260;2024-02-21T13:22:59;14.58;76.20
71942;DHT22;59997;53.300;-6.260;2024-02-21T13:25:25;14.44;76.60
71942;DHT22;59997;53.300;-6.260;2024-02-21T13:27:50;13.78;77.09
71942;DHT22;59997;53.300;-6.260;2024-02-21T13:30:16;13.75;77.81
71942;DHT22;59997;53.300;-6.260;2024-02-21T13:32:43;14.12;77.70
71942;DHT22;59997;53.300;-6.260;2024-02-21T13:35:09;14.49;77.26
71942;DHT22;59997;53.300;-6.260;2024-02-21T13:37:37;15.13;76.13
71942;DHT22;59997;53.300;-6.260;2024-02-21T13:40:03;15.26;73.82
71942;DHT22;59997;53.300;-6.260;2024-02-21T13:42:29;15.61;74.52
71942;DHT22;59997;53.300;-6.260;2024-02-21T13:44:55;15.41;74.21
71942;DHT22;59997;53.300;-6.260;2024-02-21T13:47:20;15.23;74.41
71942;DHT22;59997;53.300;-6.260;2024-02-21T13:49:47;14.89;75.35
71942;DHT22;59997;53.300;-6.260;2024-02-21T13:52:13;14.97;74.68
71942;DHT22;59997;53.300;-6.260;2024-02-21T13:54:39;14.83;75.94
71942;DHT22;59997;53.300;-6.260;2024-02-21T13:57:05;14.65;76.40
71942;DHT22;59997;53.300;-6.260;2024-02-21T13:59:30;14.76;76.24
71942;DHT22;59997;53.300;-6.260;2024-02-21T14:01:58;14.97;76.56
71942;DHT22;59997;53.300;-6.260;2024-02-21T14:04:24;14.85;76.33
71942;DHT22;59997;53.300;-6.260;2024-02-21T14:06:49;14.47;75.92
71942;DHT22;59997;53.300;-6.260;2024-02-21T14:09:15;14.69;75.52
71942;DHT22;59997;53.300;-6.260;2024-02-21T14:11:41;14.47;75.43
71942;DHT22;59997;53.300;-6.260;2024-02-21T14:14:07;14.45;75.61
71942;DHT22;59997;53.300;-6.260;2024-02-21T14:16:33;14.27;75.73
71942;DHT22;59997;53.300;-6.260;2024-02-21T14:18:59;14.17;75.65
71942;DHT22;59997;53.300;-6.260;2024-02-21T14:21:24;13.62;75.63
71942;DHT22;59997;53.300;-6.260;2024-02-21T14:23:51;13.26;76.43
71942;DHT22;59997;53.300;-6.260;2024-02-21T14:26:16;13.30;76.32
71942;DHT22;59997;53.300;-6.260;2024-02-21T14:28:42;13.62;76.57
71942;DHT22;59997;53.300;-6.260;2024-02-21T14:31:07;13.92;76.06
71942;DHT22;59997;53.300;-6.260;2024-02-21T14:33:37;13.86;75.91
71942;DHT22;59997;53.300;-6.260;2024-02-21T14:36:03;14.03;76.08
71942;DHT22;59997;53.300;-6.260;2024-02-21T14:38:29;13.62;75.99
71942;DHT22;59997;53.300;-6.260;2024-02-21T14:40:54;13.58;77.30
71942;DHT22;59997;53.300;-6.260;2024-02-21T14:43:20;13.43;77.20
71942;DHT22;59997;53.300;-6.260;2024-02-21T14:45:49;13.54;77.94
71942;DHT22;59997;53.300;-6.260;2024-02-21T14:48:15;13.44;77.00
71942;DHT22;59997;53.300;-6.260;2024-02-21T14:50:40;13.67;76.20
71942;DHT22;59997;53.300;-6.260;2024-02-21T14:53:08;13.87;75.92
71942;DHT22;59997;53.300;-6.260;2024-02-21T14:55:34;14.17;76.05
71942;DHT22;59997;53.300;-6.260;2024-02-21T14:57:59;14.14;75.10
71942;DHT22;59997;53.300;-6.260;2024-02-21T15:00:26;14.38;76.00
71942;DHT22;59997;53.300;-6.260;2024-02-21T15:02:58;14.33;74.89
71942;DHT22;59997;53.300;-6.260;2024-02-21T15:05:24;14.14;74.59
71942;DHT22;59997;53.300;-6.260;2024-02-21T15:07:50;13.75;75.17
71942;DHT22;59997;53.300;-6.260;2024-02-21T15:10:16;13.68;75.95
71942;DHT22;59997;53.300;-6.260;2024-02-21T15:12:47;13.77;76.10
71942;DHT22;59997;53.300;-6.260;2024-02-21T15:15:13;13.65;75.72
71942;DHT22;59997;53.300;-6.260;2024-02-21T15:17:39;13.89;76.51
71942;DHT22;59997;53.300;-6.260;2024-02-21T15:20:05;13.89;76.10